Time;durP1;ratioP1;P1;durP2;ratioP2;P2;SDS_P1;SDS_P2;PMS_P1;PMS_P2;Temp;Humidity;BMP_temperature;BMP_pressure;BME280_temperature;BME280_humidity;BME280_pressure;Samples;Min_cycle;Max_cycle;Signal;HPM_P1;HPM_P2
2020/12/13 00:00:37;;;;;;;61.60;34.10;;;4.80;99.90;;;;;;4122811;28;20659;-44
2020/12/13 00:02:39;;;;;;;63.57;34.37;;;4.80;99.90;;;;;;4146034;28;20290;-42
2020/12/13 00:04:40;;;;;;;73.73;34.87;;;4.80;99.90;;;;;;4156536;28;20045;-41
2020/12/13 00:06:41;;;;;;;70.90;36.63;;;4.70;99.90;;;;;;4143414;28;20303;-51
2020/12/13 00:08:42;;;;;;;72.10;38.07;;;4.70;99.90;;;;;;4156630;28;20907;-45
2020/12/13 00:10:44;;;;;;;72.83;37.90;;;4.70;99.90;;;;;;4156866;28;20045;-43
2020/12/13 00:12:45;;;;;;;70.37;36.80;;;4.70;99.90;;;;;;4156329;28;20935;-42
2020/12/13 00:14:46;;;;;;;68.20;35.93;;;4.70;99.90;;;;;;4156203;28;20798;-43
2020/12/13 00:16:51;;;;;;;66.33;36.87;;;4.70;99.90;;;;;;4156100;28;20287;-47
2020/12/13 00:18:52;;;;;;;68.77;38.80;;;4.70;99.90;;;;;;4156309;28;20305;-39
2020/12/13 00:20:53;;;;;;;68.33;36.80;;;4.70;99.90;;;;;;4156396;28;20271;-40
2020/12/13 00:22:55;;;;;;;70.53;39.80;;;4.80;99.90;;;;;;4140756;28;20788;-41
2020/12/13 00:24:56;;;;;;;74.00;38.23;;;4.80;99.90;;;;;;4140148;28;20749;-42
2020/12/13 00:26:57;;;;;;;72.83;39.70;;;4.80;99.90;;;;;;4154723;28;20417;-43
2020/12/13 00:28:58;;;;;;;81.27;44.27;;;4.80;99.90;;;;;;4139136;28;20291;-43
2020/12/13 00:30:59;;;;;;;75.77;41.70;;;4.80;99.90;;;;;;4155507;28;20092;-42
2020/12/13 00:33:00;;;;;;;85.83;45.30;;;4.70;99.90;;;;;;4156675;28;20053;-42
2020/12/13 00:35:01;;;;;;;74.93;40.20;;;4.70;99.90;;;;;;4156022;28;20551;-44
2020/12/13 00:37:03;;;;;;;80.10;40.43;;;4.70;99.90;;;;;;4146207;28;20493;-45
2020/12/13 00:39:04;;;;;;;75.67;39.30;;;4.70;99.90;;;;;;4139285;28;20080;-55
2020/12/13 00:41:09;;;;;;;72.33;40.27;;;4.70;99.90;;;;;;4122231;28;20046;-42
2020/12/13 00:43:10;;;;;;;85.17;39.83;;;4.80;99.90;;;;;;4139845;28;20517;-44
2020/12/13 00:45:11;;;;;;;71.13;38.07;;;4.80;99.90;;;;;;4140019;28;20041;-44
2020/12/13 00:47:12;;;;;;;72.57;37.77;;;4.80;99.90;;;;;;4139242;28;20272;-45
2020/12/13 00:49:14;;;;;;;70.57;38.40;;;4.80;99.90;;;;;;4139445;28;20260;-40
2020/12/13 00:51:22;;;;;;;79.10;37.30;;;4.80;99.90;;;;;;4139305;28;20116;-40
2020/12/13 00:53:24;;;;;;;72.47;37.50;;;4.70;99.90;;;;;;4140472;28;20072;-41
2020/12/13 00:55:25;;;;;;;65.20;36.87;;;4.80;99.90;;;;;;4139196;28;20291;-45
2020/12/13 00:57:26;;;;;;;67.23;35.87;;;4.80;99.90;;;;;;4150495;28;20181;-43
2020/12/13 00:59:27;;;;;;;67.93;35.23;;;4.80;99.90;;;;;;4143888;28;20449;-44
2020/12/13 01:01:28;;;;;;;57.97;33.30;;;4.90;99.90;;;;;;4156272;28;20263;-41
2020/12/13 01:03:29;;;;;;;71.77;36.77;;;4.90;99.90;;;;;;4141452;28;20291;-47
2020/12/13 01:05:30;;;;;;;74.00;38.10;;;4.90;99.90;;;;;;4138551;28;20493;-43
2020/12/13 01:07:31;;;;;;;73.03;39.13;;;4.90;99.90;;;;;;4138487;28;20333;-44
2020/12/13 01:09:32;;;;;;;71.50;38.30;;;4.90;99.90;;;;;;4139896;28;20034;-40
2020/12/13 01:11:34;;;;;;;68.17;36.87;;;4.90;99.90;;;;;;4139239;28;20446;-42
2020/12/13 01:13:35;;;;;;;79.83;40.67;;;5.00;99.90;;;;;;4139324;28;20276;-42
2020/12/13 01:15:36;;;;;;;92.67;44.40;;;5.00;99.90;;;;;;4139100;28;20049;-41
2020/12/13 01:17:37;;;;;;;88.10;42.83;;;5.00;99.90;;;;;;4151030;28;20049;-44
2020/12/13 01:19:38;;;;;;;76.10;40.30;;;5.00;99.90;;;;;;4155742;28;20345;-42
2020/12/13 01:21:39;;;;;;;66.83;36.17;;;5.10;99.90;;;;;;4151975;28;20450;-44
2020/12/13 01:23:40;;;;;;;58.43;34.43;;;5.00;99.90;;;;;;4142127;28;20049;-38
2020/12/13 01:25:42;;;;;;;66.57;33.53;;;5.10;99.90;;;;;;4153545;28;20042;-46
2020/12/13 01:27:43;;;;;;;59.17;31.83;;;5.10;99.90;;;;;;4155777;28;20370;-45
2020/12/13 01:29:44;;;;;;;59.27;31.60;;;5.00;99.90;;;;;;4155778;28;20029;-41
2020/12/13 01:31:45;;;;;;;54.50;30.10;;;5.10;99.90;;;;;;4148869;28;20069;-44
2020/12/13 01:33:47;;;;;;;59.07;30.03;;;5.10;99.90;;;;;;4141947;28;20044;-49
2020/12/13 01:35:48;;;;;;;53.43;28.73;;;5.10;99.90;;;;;;4146127;28;20048;-40
2020/12/13 01:37:49;;;;;;;54.33;30.20;;;5.10;99.90;;;;;;4155821;28;20112;-40
2020/12/13 01:39:50;;;;;;;56.63;31.23;;;5.10;99.90;;;;;;4150364;28;20054;-43
2020/12/13 01:41:59;;;;;;;51.40;29.40;;;5.10;99.90;;;;;;4138970;28;20295;-41
2020/12/13 01:44:05;;;;;;;51.23;28.50;;;5.10;99.90;;;;;;4139586;28;20042;-44
2020/12/13 01:46:06;;;;;;;51.60;27.30;;;5.10;99.90;;;;;;4122077;28;20120;-44
2020/12/13 01:48:08;;;;;;;47.53;27.30;;;5.10;99.90;;;;;;4155411;28;20100;-55
2020/12/13 01:50:14;;;;;;;52.13;27.67;;;5.10;99.90;;;;;;4156074;28;20107;-41
2020/12/13 01:54:39;;;;;;;49.87;26.43;;;5.10;99.90;;;;;;4151550;28;20462;-40
2020/12/13 01:56:48;;;;;;;53.57;28.00;;;5.10;99.90;;;;;;4138878;28;20030;-51
2020/12/13 01:58:52;;;;;;;51.07;27.80;;;5.10;99.90;;;;;;4139512;28;20037;-40
2020/12/13 02:00:56;;;;;;;49.47;26.53;;;5.10;99.90;;;;;;4137999;28;20333;-39
2020/12/13 02:03:01;;;;;;;47.63;27.37;;;5.10;99.90;;;;;;4139486;28;20034;-41
2020/12/13 02:05:04;;;;;;;52.37;27.80;;;5.10;99.90;;;;;;4140690;28;20376;-39
2020/12/13 02:07:06;;;;;;;51.77;27.40;;;5.10;99.90;;;;;;4151284;28;20041;-40
2020/12/13 02:09:09;;;;;;;49.40;25.23;;;5.10;99.90;;;;;;4157676;28;20084;-42
2020/12/13 02:11:11;;;;;;;49.57;27.50;;;5.10;99.90;;;;;;4156134;28;20089;-42
2020/12/13 02:13:12;;;;;;;56.63;28.63;;;5.10;99.90;;;;;;4142021;28;20472;-42
2020/12/13 02:15:13;;;;;;;54.03;27.97;;;5.10;99.90;;;;;;4142549;28;20283;-42
2020/12/13 02:17:15;;;;;;;51.03;26.67;;;5.00;99.90;;;;;;4151292;28;20278;-48
2020/12/13 02:19:16;;;;;;;54.63;27.50;;;5.00;99.90;;;;;;4157991;28;20119;-46
2020/12/13 02:21:19;;;;;;;53.33;28.17;;;5.00;99.90;;;;;;4158485;28;20071;-41
2020/12/13 02:23:21;;;;;;;63.67;30.70;;;4.90;99.90;;;;;;4158416;28;20088;-38
2020/12/13 02:25:23;;;;;;;56.90;29.73;;;4.90;99.90;;;;;;4150418;28;20034;-43
2020/12/13 02:27:24;;;;;;;55.80;27.93;;;4.80;99.90;;;;;;4153041;28;20340;-42
2020/12/13 02:29:25;;;;;;;62.47;30.03;;;4.80;99.90;;;;;;4154482;28;20049;-41
2020/12/13 02:31:26;;;;;;;59.13;29.50;;;4.80;99.90;;;;;;4141819;28;20326;-45
2020/12/13 02:33:27;;;;;;;50.23;26.03;;;4.70;99.90;;;;;;4145395;28;20267;-44
2020/12/13 02:35:28;;;;;;;58.43;25.83;;;4.70;99.90;;;;;;4157714;28;21198;-41
2020/12/13 02:37:30;;;;;;;51.57;26.33;;;4.70;99.90;;;;;;4157252;28;20279;-38
2020/12/13 02:39:31;;;;;;;49.90;25.63;;;4.70;99.90;;;;;;4156217;28;20041;-51
2020/12/13 02:41:32;;;;;;;49.47;25.90;;;4.60;99.90;;;;;;4152835;28;20743;-44
2020/12/13 02:43:33;;;;;;;49.53;25.10;;;4.60;99.90;;;;;;4141740;28;20084;-46
2020/12/13 02:45:34;;;;;;;53.30;25.23;;;4.60;99.90;;;;;;4141691;28;20301;-47
2020/12/13 02:47:36;;;;;;;47.97;24.33;;;4.60;99.90;;;;;;4153606;28;20858;-38
2020/12/13 02:49:43;;;;;;;47.57;24.67;;;4.60;99.90;;;;;;4157909;28;20417;-41
2020/12/13 02:51:44;;;;;;;47.57;23.50;;;4.60;99.90;;;;;;4144565;28;20691;-42
2020/12/13 02:53:46;;;;;;;51.33;24.60;;;4.70;99.90;;;;;;4141895;28;20260;-45
2020/12/13 02:55:47;;;;;;;56.43;25.30;;;4.70;99.90;;;;;;4141438;28;20295;-36
2020/12/13 02:57:48;;;;;;;47.87;23.00;;;4.70;99.90;;;;;;4156556;28;20311;-45
2020/12/13 02:59:49;;;;;;;49.60;24.00;;;4.70;99.90;;;;;;4157951;28;20267;-45
2020/12/13 03:01:50;;;;;;;45.87;23.27;;;4.70;99.90;;;;;;4151054;28;20275;-47
2020/12/13 03:03:51;;;;;;;47.43;23.13;;;4.70;99.90;;;;;;4141124;28;20287;-39
2020/12/13 03:05:52;;;;;;;51.80;24.57;;;4.70;99.90;;;;;;4140248;28;20279;-38
2020/12/13 03:07:53;;;;;;;52.33;24.17;;;4.70;99.90;;;;;;4141275;28;20322;-45
2020/12/13 03:09:55;;;;;;;52.40;23.47;;;4.70;99.90;;;;;;4156906;28;20030;-38
2020/12/13 03:11:56;;;;;;;50.67;24.67;;;4.70;99.90;;;;;;4140462;28;20351;-39
2020/12/13 03:13:57;;;;;;;53.17;24.80;;;4.70;99.90;;;;;;4156612;28;20221;-38
2020/12/13 03:15:58;;;;;;;48.40;24.93;;;4.70;99.90;;;;;;4156853;28;20298;-43
2020/12/13 03:17:59;;;;;;;51.27;24.63;;;4.80;99.90;;;;;;4156344;28;20263;-41
2020/12/13 03:20:00;;;;;;;52.40;25.07;;;4.80;99.90;;;;;;4155986;28;20746;-40
2020/12/13 03:22:01;;;;;;;54.33;25.43;;;4.70;99.90;;;;;;4157514;28;20313;-42
2020/12/13 03:24:02;;;;;;;52.90;25.17;;;4.80;99.90;;;;;;4147807;28;20038;-42
2020/12/13 03:26:04;;;;;;;49.90;25.63;;;4.70;99.90;;;;;;4140091;28;20279;-43
2020/12/13 03:28:05;;;;;;;54.17;26.17;;;4.70;99.90;;;;;;4141795;28;20803;-44
2020/12/13 03:30:06;;;;;;;61.13;26.33;;;4.60;99.90;;;;;;4140401;28;20384;-40
2020/12/13 03:32:07;;;;;;;57.87;24.80;;;4.60;99.90;;;;;;4139860;28;20272;-41
2020/12/13 03:34:08;;;;;;;55.17;25.73;;;4.60;99.90;;;;;;4141108;28;20338;-43
2020/12/13 03:36:09;;;;;;;58.50;26.40;;;4.60;99.90;;;;;;4139178;28;20377;-42
2020/12/13 03:38:10;;;;;;;51.10;24.17;;;4.60;99.90;;;;;;4141075;28;20845;-42
2020/12/13 03:40:12;;;;;;;55.00;25.13;;;4.60;99.90;;;;;;4140304;28;20275;-39
2020/12/13 03:42:13;;;;;;;60.20;25.50;;;4.60;99.90;;;;;;4140436;28;20291;-40
2020/12/13 03:44:14;;;;;;;59.13;24.23;;;4.60;99.90;;;;;;4122762;28;20374;-40
2020/12/13 03:46:15;;;;;;;48.73;23.20;;;4.60;99.90;;;;;;4140298;28;20279;-43
2020/12/13 03:48:16;;;;;;;50.03;22.30;;;4.50;99.90;;;;;;4139938;28;20282;-42
2020/12/13 03:50:17;;;;;;;51.20;23.50;;;4.50;99.90;;;;;;4140095;28;20314;-39
2020/12/13 03:52:19;;;;;;;67.13;34.50;;;4.50;99.90;;;;;;4139759;28;20345;-39
2020/12/13 03:54:20;;;;;;;66.90;35.70;;;4.60;99.90;;;;;;4152591;28;20281;-39
2020/12/13 03:56:21;;;;;;;75.87;39.93;;;4.50;99.90;;;;;;4156005;28;20433;-40
2020/12/13 03:58:22;;;;;;;73.47;45.30;;;4.50;99.90;;;;;;4143881;28;20310;-47
2020/12/13 04:00:23;;;;;;;87.93;49.47;;;4.60;99.90;;;;;;4140822;28;20276;-48
2020/12/13 04:02:24;;;;;;;85.43;46.80;;;4.60;99.90;;;;;;4139408;28;20341;-49
2020/12/13 04:04:25;;;;;;;75.47;44.70;;;4.50;99.90;;;;;;4155006;28;20673;-41
2020/12/13 04:06:26;;;;;;;74.70;41.93;;;4.50;99.90;;;;;;4156651;28;20269;-43
2020/12/13 04:08:27;;;;;;;58.97;30.57;;;4.50;99.90;;;;;;4156578;28;20324;-49
2020/12/13 04:10:28;;;;;;;61.10;30.27;;;4.60;99.90;;;;;;4155878;28;20785;-44
2020/12/13 04:12:30;;;;;;;60.53;30.97;;;4.60;99.90;;;;;;4146673;28;20334;-42
2020/12/13 04:14:31;;;;;;;58.27;30.03;;;4.60;99.90;;;;;;4153817;28;20333;-43
2020/12/13 04:16:32;;;;;;;60.87;28.73;;;4.60;99.90;;;;;;4143904;28;20299;-42
2020/12/13 04:18:33;;;;;;;64.47;31.83;;;4.60;99.90;;;;;;4152075;28;20698;-47
2020/12/13 04:20:34;;;;;;;66.70;31.57;;;4.60;99.90;;;;;;4156459;28;20259;-45
2020/12/13 04:22:35;;;;;;;74.30;33.73;;;4.60;99.90;;;;;;4156402;28;20298;-39
2020/12/13 04:24:36;;;;;;;66.27;31.47;;;4.60;99.90;;;;;;4156208;28;20282;-41
2020/12/13 04:26:37;;;;;;;65.97;31.60;;;4.60;99.90;;;;;;4155158;28;20828;-39
2020/12/13 04:28:39;;;;;;;73.17;34.00;;;4.60;99.90;;;;;;4156241;28;20271;-39
2020/12/13 04:30:40;;;;;;;68.30;37.23;;;4.70;99.90;;;;;;4156612;28;20271;-42
2020/12/13 04:32:41;;;;;;;77.63;41.73;;;4.70;99.90;;;;;;4125195;28;20347;-40
2020/12/13 04:34:42;;;;;;;75.60;36.90;;;4.70;99.90;;;;;;4140686;28;20798;-42
2020/12/13 04:36:44;;;;;;;62.20;32.03;;;4.70;99.90;;;;;;4143860;28;20432;-42
2020/12/13 04:38:45;;;;;;;61.10;30.93;;;4.80;99.90;;;;;;4140363;28;20276;-39
2020/12/13 04:40:46;;;;;;;66.37;33.17;;;4.80;99.90;;;;;;4139836;28;20345;-50
2020/12/13 04:42:50;;;;;;;53.87;28.03;;;4.80;99.90;;;;;;4135567;28;20325;-39
2020/12/13 04:44:52;;;;;;;52.90;25.20;;;4.80;99.90;;;;;;4141647;28;20322;-44
2020/12/13 04:46:54;;;;;;;47.47;23.17;;;4.80;99.90;;;;;;4156877;28;20328;-38
2020/12/13 04:48:56;;;;;;;49.07;24.87;;;4.80;99.90;;;;;;4148942;28;20263;-42
2020/12/13 04:50:58;;;;;;;47.40;25.03;;;4.70;99.90;;;;;;4155610;28;20305;-43
2020/12/13 04:53:05;;;;;;;48.77;23.23;;;4.70;99.90;;;;;;4155069;28;20271;-39
2020/12/13 04:55:08;;;;;;;44.73;23.37;;;4.70;99.90;;;;;;4156333;28;20258;-39
2020/12/13 04:57:11;;;;;;;48.73;23.80;;;4.70;99.90;;;;;;4146388;28;20295;-43
2020/12/13 04:59:14;;;;;;;48.37;23.40;;;4.70;99.90;;;;;;4139525;28;20287;-45
2020/12/13 05:01:19;;;;;;;46.93;24.23;;;4.70;99.90;;;;;;4138711;28;20284;-42
2020/12/13 05:03:21;;;;;;;47.20;22.33;;;4.70;99.90;;;;;;4139717;28;20321;-42
2020/12/13 05:05:22;;;;;;;49.90;22.97;;;4.70;99.90;;;;;;4152879;28;20037;-38
2020/12/13 05:07:23;;;;;;;49.87;22.80;;;4.70;99.90;;;;;;4155591;28;20456;-42
2020/12/13 05:09:25;;;;;;;48.90;22.83;;;4.70;99.90;;;;;;4155267;28;20271;-39
2020/12/13 05:11:26;;;;;;;48.03;25.53;;;4.70;99.90;;;;;;4150271;28;20284;-43
2020/12/13 05:13:27;;;;;;;52.43;26.13;;;4.70;99.90;;;;;;4148410;28;20380;-38
2020/12/13 05:15:28;;;;;;;50.33;25.43;;;4.80;99.90;;;;;;4151583;28;20391;-45
2020/12/13 05:17:29;;;;;;;51.57;24.87;;;4.80;99.90;;;;;;4139135;28;20275;-40
2020/12/13 05:19:30;;;;;;;54.07;24.90;;;4.80;99.90;;;;;;4138751;28;20284;-42
2020/12/13 05:21:31;;;;;;;50.50;24.77;;;4.80;99.90;;;;;;4140135;28;20263;-39
2020/12/13 05:23:33;;;;;;;53.27;24.43;;;4.80;99.90;;;;;;4138741;28;20271;-43
2020/12/13 05:25:40;;;;;;;45.97;22.37;;;4.90;99.90;;;;;;4146486;28;20312;-41
2020/12/13 05:27:41;;;;;;;42.17;21.13;;;4.90;99.90;;;;;;4154834;28;20333;-40
2020/12/13 05:29:45;;;;;;;49.60;22.53;;;4.90;99.90;;;;;;4154400;28;20440;-47
2020/12/13 05:31:46;;;;;;;46.23;22.27;;;4.90;99.90;;;;;;4155126;28;20325;-42
2020/12/13 05:33:56;;;;;;;44.63;21.07;;;4.90;99.90;;;;;;4155505;28;20042;-43
2020/12/13 05:36:02;;;;;;;45.53;21.15;;;4.90;99.90;;;;;;4155099;28;20697;-42
2020/12/13 05:38:14;;;;;;;42.50;19.97;;;4.80;99.90;;;;;;4155799;28;20049;-44
2020/12/13 05:40:15;;;;;;;44.37;20.57;;;4.80;99.90;;;;;;4157201;28;20356;-43
2020/12/13 05:42:39;;;;;;;43.17;20.53;;;4.80;99.90;;;;;;4148668;28;20368;-40
2020/12/13 05:45:06;;;;;;;44.07;21.10;;;4.80;99.90;;;;;;4143087;28;20034;-39
2020/12/13 05:51:50;;;;;;;45.33;20.50;;;4.80;99.90;;;;;;4152687;28;20349;-43
2020/12/13 05:53:57;;;;;;;45.30;21.67;;;4.90;99.90;;;;;;4153095;28;20278;-45
2020/12/13 05:55:58;;;;;;;47.13;22.73;;;4.80;99.90;;;;;;4159317;28;20295;-41
2020/12/13 05:58:00;;;;;;;46.43;22.30;;;4.80;99.90;;;;;;4158414;28;20278;-40
2020/12/13 06:00:01;;;;;;;47.47;23.10;;;4.80;99.90;;;;;;4159076;28;20267;-47
2020/12/13 06:02:03;;;;;;;45.07;24.63;;;4.80;99.90;;;;;;4150021;28;20275;-46
2020/12/13 06:04:09;;;;;;;42.40;21.50;;;4.80;99.90;;;;;;4142248;28;20825;-40
2020/12/13 06:06:19;;;;;;;43.63;20.17;;;4.80;99.90;;;;;;4141855;28;20042;-42
2020/12/13 06:08:26;;;;;;;42.47;20.13;;;4.80;99.90;;;;;;4157692;28;20350;-41
2020/12/13 06:10:33;;;;;;;55.73;20.53;;;4.80;99.90;;;;;;4154872;28;20037;-40
2020/12/13 06:12:36;;;;;;;43.10;20.13;;;4.80;99.90;;;;;;4142008;28;20283;-39
2020/12/13 06:14:38;;;;;;;44.50;20.30;;;4.90;99.90;;;;;;4141756;28;20287;-42
2020/12/13 06:16:39;;;;;;;43.60;20.37;;;4.90;99.90;;;;;;4153191;28;20053;-45
2020/12/13 06:18:40;;;;;;;50.13;23.03;;;4.90;99.90;;;;;;4158424;28;20279;-49
2020/12/13 06:20:42;;;;;;;63.03;26.37;;;4.90;99.90;;;;;;4158298;28;20324;-44
2020/12/13 06:22:45;;;;;;;59.50;25.60;;;5.00;99.90;;;;;;4158239;28;20670;-42
2020/12/13 06:24:48;;;;;;;58.03;23.63;;;5.00;99.90;;;;;;4142851;28;20357;-41
2020/12/13 06:26:51;;;;;;;45.70;20.80;;;5.10;99.90;;;;;;4158217;28;20049;-52
2020/12/13 06:28:53;;;;;;;47.27;20.80;;;5.00;99.90;;;;;;4156650;28;20291;-51
2020/12/13 06:30:55;;;;;;;47.70;20.20;;;5.10;99.90;;;;;;4157964;28;20041;-43
2020/12/13 06:32:56;;;;;;;47.60;21.67;;;5.10;99.90;;;;;;4157724;28;20330;-40
2020/12/13 06:34:57;;;;;;;49.30;21.53;;;5.10;99.90;;;;;;4157819;28;20341;-44
2020/12/13 06:36:58;;;;;;;44.03;20.40;;;5.00;99.90;;;;;;4149670;28;20049;-43
2020/12/13 06:39:00;;;;;;;46.77;23.33;;;5.00;99.90;;;;;;4141961;28;20263;-44
2020/12/13 06:41:13;;;;;;;47.00;21.03;;;5.00;99.90;;;;;;4154996;28;20279;-50
2020/12/13 06:43:17;;;;;;;48.87;21.23;;;5.00;99.90;;;;;;4142034;28;20298;-40
2020/12/13 06:45:19;;;;;;;44.07;19.80;;;5.00;99.90;;;;;;4141712;28;20350;-41
2020/12/13 06:47:24;;;;;;;46.73;20.33;;;5.00;99.90;;;;;;4149848;28;20278;-39
2020/12/13 06:49:25;;;;;;;39.37;19.07;;;5.00;99.90;;;;;;4157415;28;20364;-40
2020/12/13 06:51:33;;;;;;;42.97;19.50;;;5.00;99.90;;;;;;4157350;28;20275;-48
2020/12/13 06:53:35;;;;;;;49.53;24.50;;;5.10;99.90;;;;;;4157628;28;20267;-44
2020/12/13 06:55:37;;;;;;;46.57;21.53;;;5.10;99.90;;;;;;4157675;28;20645;-46
2020/12/13 06:57:41;;;;;;;44.33;21.47;;;5.10;99.90;;;;;;4143642;28;20299;-40
2020/12/13 06:59:45;;;;;;;41.67;19.23;;;5.10;99.90;;;;;;4140922;28;20291;-43
2020/12/13 07:01:47;;;;;;;46.47;20.70;;;5.10;99.90;;;;;;4143589;28;20310;-40
2020/12/13 07:03:48;;;;;;;54.57;24.07;;;5.10;99.90;;;;;;4157340;28;20285;-42
2020/12/13 07:05:55;;;;;;;57.33;25.40;;;5.10;99.90;;;;;;4156504;28;20800;-40
2020/12/13 07:07:56;;;;;;;44.47;21.90;;;5.20;99.90;;;;;;4157106;28;20333;-50
2020/12/13 07:09:59;;;;;;;48.90;22.10;;;5.20;99.90;;;;;;4156665;28;20033;-45
2020/12/13 07:12:02;;;;;;;44.43;19.97;;;5.20;99.90;;;;;;4155866;28;20328;-42
2020/12/13 07:14:09;;;;;;;49.17;21.03;;;5.20;99.90;;;;;;4158372;28;20037;-44
2020/12/13 07:18:16;;;;;;;37.57;18.77;;;5.20;99.90;;;;;;4151715;28;20336;-44
2020/12/13 07:20:19;;;;;;;35.47;17.60;;;5.30;99.90;;;;;;4140753;28;20062;-44
2020/12/13 07:22:20;;;;;;;39.23;18.83;;;5.30;99.90;;;;;;4140408;28;20038;-41
2020/12/13 07:24:22;;;;;;;46.40;24.40;;;5.30;99.90;;;;;;4141081;28;20026;-38
2020/12/13 07:26:24;;;;;;;46.73;24.97;;;5.30;99.90;;;;;;4148756;28;20041;-40
2020/12/13 07:28:28;;;;;;;52.50;27.37;;;5.40;99.90;;;;;;4151412;28;20110;-40
2020/12/13 07:30:29;;;;;;;59.77;29.73;;;5.40;99.90;;;;;;4146768;28;20131;-45
2020/12/13 07:32:31;;;;;;;52.30;27.23;;;5.40;99.90;;;;;;4141068;28;20108;-41
2020/12/13 07:34:32;;;;;;;40.60;21.87;;;5.40;99.90;;;;;;4140470;28;20177;-43
2020/12/13 07:36:34;;;;;;;44.50;23.30;;;5.40;99.90;;;;;;4140370;28;20092;-45
2020/12/13 07:38:35;;;;;;;49.27;24.03;;;5.40;99.90;;;;;;4141815;28;20283;-38
2020/12/13 07:40:37;;;;;;;57.97;35.73;;;5.40;99.90;;;;;;4150906;28;20112;-44
2020/12/13 07:42:38;;;;;;;67.67;38.17;;;5.40;99.90;;;;;;4139521;28;20050;-41
2020/12/13 07:44:41;;;;;;;73.53;41.47;;;5.40;99.90;;;;;;4141189;28;20033;-44
2020/12/13 07:46:43;;;;;;;67.93;34.90;;;5.40;99.90;;;;;;4139284;28;20046;-38
2020/12/13 07:48:44;;;;;;;49.17;28.27;;;5.40;99.90;;;;;;4141023;28;20470;-47
2020/12/13 07:50:47;;;;;;;44.17;23.03;;;5.40;99.90;;;;;;4138797;28;20365;-46
2020/12/13 07:52:50;;;;;;;42.50;21.37;;;5.40;99.90;;;;;;4139317;28;20124;-39
2020/12/13 07:54:51;;;;;;;34.30;17.77;;;5.40;99.90;;;;;;4139973;28;20035;-41
2020/12/13 07:56:54;;;;;;;35.47;17.47;;;5.40;99.90;;;;;;4140012;28;20045;-41
2020/12/13 07:59:11;;;;;;;35.23;18.73;;;5.40;99.90;;;;;;4140005;28;20338;-40
2020/12/13 08:01:12;;;;;;;34.27;16.40;;;5.50;99.90;;;;;;4139940;28;20588;-43
2020/12/13 08:03:13;;;;;;;37.10;19.40;;;5.50;99.90;;;;;;4139676;28;20049;-39
2020/12/13 08:05:18;;;;;;;37.63;18.70;;;5.50;99.90;;;;;;4139604;28;20042;-42
2020/12/13 08:07:21;;;;;;;31.37;15.33;;;5.50;99.90;;;;;;4139736;28;20682;-43
2020/12/13 08:09:22;;;;;;;29.53;14.63;;;5.50;99.90;;;;;;4139456;28;20604;-43
2020/12/13 08:11:24;;;;;;;31.13;14.83;;;5.50;99.90;;;;;;4139819;28;20076;-51
2020/12/13 08:13:25;;;;;;;24.90;13.03;;;5.50;99.90;;;;;;4139484;28;20054;-39
2020/12/13 08:15:28;;;;;;;27.33;13.43;;;5.50;99.90;;;;;;4141437;28;20533;-42
2020/12/13 08:17:29;;;;;;;28.37;14.10;;;5.50;99.90;;;;;;4150149;28;20545;-39
2020/12/13 08:19:35;;;;;;;33.37;16.30;;;5.50;99.90;;;;;;4139213;28;20108;-41
2020/12/13 08:22:07;;;;;;;31.43;15.53;;;5.50;99.90;;;;;;4138408;28;20107;-40
2020/12/13 08:24:14;;;;;;;27.90;15.23;;;5.50;99.90;;;;;;4139630;28;20053;-39
2020/12/13 08:26:16;;;;;;;30.20;15.23;;;5.60;99.90;;;;;;4138961;28;20096;-42
2020/12/13 08:28:17;;;;;;;34.93;16.90;;;5.60;99.90;;;;;;4139833;28;20037;-40
2020/12/13 08:30:19;;;;;;;34.10;17.87;;;5.60;99.90;;;;;;4139149;28;20045;-39
2020/12/13 08:32:28;;;;;;;48.67;24.43;;;5.60;99.90;;;;;;4138974;28;20060;-43
2020/12/13 08:34:30;;;;;;;32.70;17.00;;;5.60;99.90;;;;;;4138981;28;20108;-44
2020/12/13 08:36:33;;;;;;;31.40;16.37;;;5.60;99.90;;;;;;4139347;28;20307;-41
2020/12/13 08:38:35;;;;;;;34.60;17.43;;;5.70;99.90;;;;;;4138184;28;20116;-43
2020/12/13 08:40:41;;;;;;;31.73;17.33;;;5.70;99.90;;;;;;4141071;28;20559;-44
2020/12/13 08:42:44;;;;;;;43.40;19.53;;;5.70;99.90;;;;;;4154923;28;20416;-46
2020/12/13 08:44:45;;;;;;;37.37;19.53;;;5.70;99.90;;;;;;4155401;28;20057;-42
2020/12/13 08:46:49;;;;;;;36.33;18.73;;;5.80;99.90;;;;;;4153783;28;20049;-44
2020/12/13 08:48:51;;;;;;;37.47;19.83;;;5.80;99.90;;;;;;4155583;28;20053;-39
2020/12/13 08:51:11;;;;;;;34.43;16.70;;;5.80;99.90;;;;;;4154375;28;20091;-50
2020/12/13 08:53:20;;;;;;;36.92;18.92;;;5.90;99.90;;;;;;4155401;28;20037;-45
2020/12/13 08:55:26;;;;;;;39.53;20.63;;;5.90;99.90;;;;;;4155105;28;20104;-42
2020/12/13 08:57:37;;;;;;;36.40;18.73;;;5.90;99.90;;;;;;4155486;28;20477;-46
2020/12/13 08:59:38;;;;;;;36.17;18.67;;;6.00;99.90;;;;;;4150638;28;20099;-45
2020/12/13 09:01:52;;;;;;;35.63;18.17;;;6.00;99.90;;;;;;4138789;28;20038;-45
2020/12/13 09:03:54;;;;;;;34.77;17.77;;;6.10;99.90;;;;;;4138499;28;20034;-44
2020/12/13 09:05:55;;;;;;;32.43;17.77;;;6.10;99.90;;;;;;4138850;28;20034;-54
2020/12/13 09:07:58;;;;;;;32.00;17.07;;;6.10;99.90;;;;;;4138928;28;20038;-46
2020/12/13 09:10:08;;;;;;;34.30;18.00;;;6.00;99.90;;;;;;4138472;28;20049;-51
2020/12/13 09:12:20;;;;;;;36.30;18.83;;;6.00;99.90;;;;;;4139122;28;20470;-49
2020/12/13 09:14:28;;;;;;;35.80;20.90;;;6.00;99.90;;;;;;4138780;28;20041;-38
2020/12/13 09:16:31;;;;;;;40.20;20.17;;;6.00;99.90;;;;;;4138057;28;20445;-41
2020/12/13 09:18:32;;;;;;;39.93;19.80;;;6.00;99.90;;;;;;4139063;28;20026;-45
2020/12/13 09:20:36;;;;;;;37.10;19.73;;;6.00;99.90;;;;;;4138785;28;20029;-46
2020/12/13 09:22:39;;;;;;;40.67;21.03;;;6.10;99.90;;;;;;4138435;28;20046;-58
2020/12/13 09:24:40;;;;;;;42.23;24.17;;;6.10;99.90;;;;;;4138402;28;20065;-43
2020/12/13 09:26:41;;;;;;;45.90;24.70;;;6.20;99.90;;;;;;4138870;28;20413;-64
2020/12/13 09:28:42;;;;;;;50.97;26.93;;;6.10;99.90;;;;;;4139157;28;20030;-47
2020/12/13 09:30:44;;;;;;;42.30;22.80;;;6.20;99.90;;;;;;4138214;28;20038;-44
2020/12/13 09:32:46;;;;;;;37.93;20.40;;;6.20;99.90;;;;;;4138590;28;20096;-42
2020/12/13 09:34:48;;;;;;;53.23;27.27;;;6.20;99.90;;;;;;4138188;28;20139;-40
2020/12/13 09:36:50;;;;;;;49.67;24.97;;;6.20;99.90;;;;;;4138461;28;20054;-47
2020/12/13 09:38:52;;;;;;;47.77;26.53;;;6.20;99.90;;;;;;4138267;28;20401;-48
2020/12/13 09:40:53;;;;;;;59.10;28.63;;;6.30;99.90;;;;;;4139306;28;20465;-51
2020/12/13 09:42:55;;;;;;;61.77;30.40;;;6.30;99.90;;;;;;4137399;28;20417;-47
2020/12/13 09:44:56;;;;;;;51.50;25.97;;;6.40;99.90;;;;;;4138374;28;20089;-49
2020/12/13 09:46:59;;;;;;;52.07;25.77;;;6.40;99.90;;;;;;4138333;28;20033;-46
2020/12/13 09:49:01;;;;;;;62.40;31.73;;;6.50;99.90;;;;;;4138370;28;20076;-48
2020/12/13 09:51:02;;;;;;;52.83;26.77;;;6.50;99.90;;;;;;4120872;28;20046;-50
2020/12/13 09:53:05;;;;;;;57.30;30.57;;;6.60;99.90;;;;;;4137870;28;20037;-50
2020/12/13 09:55:06;;;;;;;56.23;27.80;;;6.60;99.90;;;;;;4147966;28;20099;-47
2020/12/13 09:57:07;;;;;;;60.20;31.00;;;6.60;99.90;;;;;;4137459;28;20088;-51
2020/12/13 09:59:08;;;;;;;64.00;29.77;;;6.60;99.90;;;;;;4137990;28;20639;-56
2020/12/13 10:01:11;;;;;;;51.40;26.77;;;6.60;99.90;;;;;;4119902;28;20046;-45
2020/12/13 10:03:13;;;;;;;56.70;28.77;;;6.60;99.90;;;;;;4137637;28;20104;-54
2020/12/13 10:05:28;;;;;;;41.43;21.67;;;6.60;99.90;;;;;;4137729;28;20463;-50
2020/12/13 10:09:46;;;;;;;122.30;49.83;;;6.60;99.90;;;;;;4137856;28;20038;-53
2020/12/13 10:11:47;;;;;;;122.73;54.13;;;6.70;99.90;;;;;;4137264;28;20046;-50
2020/12/13 10:13:48;;;;;;;91.30;41.47;;;6.70;99.90;;;;;;4136671;28;20034;-48
2020/12/13 10:15:49;;;;;;;76.00;36.00;;;6.70;99.90;;;;;;4137425;28;20112;-43
2020/12/13 10:17:50;;;;;;;563.70;300.33;;;6.80;99.90;;;;;;4136847;28;20050;-49
2020/12/13 10:19:51;;;;;;;455.33;225.83;;;6.80;99.90;;;;;;4137257;28;20763;-50
2020/12/13 10:21:52;;;;;;;87.57;40.60;;;6.90;99.90;;;;;;4120151;28;20097;-42
2020/12/13 10:23:54;;;;;;;56.63;26.43;;;6.90;99.90;;;;;;4138103;28;20042;-39
2020/12/13 10:25:55;;;;;;;64.57;32.83;;;6.90;99.90;;;;;;4123372;28;20030;-37
2020/12/13 10:27:56;;;;;;;59.43;29.37;;;7.00;99.90;;;;;;4144099;28;20041;-36
2020/12/13 10:29:57;;;;;;;75.10;33.43;;;6.90;99.90;;;;;;4140781;28;20113;-45
2020/12/13 10:31:58;;;;;;;130.90;48.90;;;7.00;99.90;;;;;;4140606;28;20072;-39
2020/12/13 10:34:00;;;;;;;139.13;51.13;;;7.00;99.90;;;;;;4140902;28;20046;-43
2020/12/13 10:36:01;;;;;;;83.47;33.90;;;7.00;99.90;;;;;;4141059;28;20426;-39
2020/12/13 10:38:03;;;;;;;95.33;38.87;;;7.00;99.90;;;;;;4141381;28;20529;-37
2020/12/13 10:40:04;;;;;;;107.63;44.13;;;7.00;99.90;;;;;;4140421;28;20100;-36